sensor_id;sensor_type;location;lat;lon;timestamp;P1;durP1;ratioP1;P2;durP2;ratioP2
20861;SDS011;10591;52.532;13.348;2024-03-23T00:52:44;16.77;;;4.23;;
20861;SDS011;10591;52.532;13.348;2024-03-23T00:55:14;10.68;;;4.03;;
20861;SDS011;10591;52.532;13.348;2024-03-23T00:57:45;15.95;;;4.83;;
20861;SDS011;10591;52.532;13.348;2024-03-23T01:00:16;13.80;;;5.03;;
20861;SDS011;10591;52.532;13.348;2024-03-23T01:02:46;13.48;;;4.60;;
20861;SDS011;10591;52.532;13.348;2024-03-23T01:05:17;12.93;;;4.00;;
20861;SDS011;10591;52.532;13.348;2024-03-23T01:07:49;13.70;;;4.35;;
20861;SDS011;10591;52.532;13.348;2024-03-23T01:10:19;12.53;;;3.98;;
20861;SDS011;10591;52.532;13.348;2024-03-23T01:12:50;13.98;;;3.70;;
20861;SDS011;10591;52.532;13.348;2024-03-23T01:15:21;15.00;;;4.87;;
20861;SDS011;10591;52.532;13.348;2024-03-23T01:17:51;16.52;;;4.12;;
20861;SDS011;10591;52.532;13.348;2024-03-23T01:20:22;12.88;;;4.35;;
20861;SDS011;10591;52.532;13.348;2024-03-23T01:22:53;13.03;;;4.35;;
20861;SDS011;10591;52.532;13.348;2024-03-23T01:25:25;15.25;;;4.53;;
20861;SDS011;10591;52.532;13.348;2024-03-23T01:27:55;18.37;;;4.72;;
20861;SDS011;10591;52.532;13.348;2024-03-23T01:30:26;19.02;;;4.33;;
20861;SDS011;10591;52.532;13.348;2024-03-23T01:32:57;14.55;;;4.50;;
20861;SDS011;10591;52.532;13.348;2024-03-23T01:35:28;12.40;;;4.65;;
20861;SDS011;10591;52.532;13.348;2024-03-23T01:37:58;15.23;;;4.00;;
20861;SDS011;10591;52.532;13.348;2024-03-23T01:40:31;15.57;;;4.60;;
20861;SDS011;10591;52.532;13.348;2024-03-23T01:43:05;16.23;;;4.85;;
20861;SDS011;10591;52.532;13.348;2024-03-23T01:45:40;13.78;;;4.03;;
20861;SDS011;10591;52.532;13.348;2024-03-23T01:48:12;15.88;;;4.85;;
20861;SDS011;10591;52.532;13.348;2024-03-23T01:50:42;19.35;;;5.12;;
20861;SDS011;10591;52.532;13.348;2024-03-23T01:53:13;15.72;;;4.30;;
20861;SDS011;10591;52.532;13.348;2024-03-23T01:55:46;18.48;;;4.50;;
20861;SDS011;10591;52.532;13.348;2024-03-23T01:58:17;11.33;;;3.95;;
20861;SDS011;10591;52.532;13.348;2024-03-23T02:00:48;14.85;;;4.95;;
20861;SDS011;10591;52.532;13.348;2024-03-23T02:03:23;15.30;;;4.67;;
20861;SDS011;10591;52.532;13.348;2024-03-23T02:05:57;12.03;;;4.35;;
20861;SDS011;10591;52.532;13.348;2024-03-23T02:08:28;9.30;;;4.47;;
20861;SDS011;10591;52.532;13.348;2024-03-23T02:11:00;14.98;;;4.37;;
20861;SDS011;10591;52.532;13.348;2024-03-23T02:13:31;14.07;;;4.62;;
20861;SDS011;10591;52.532;13.348;2024-03-23T02:16:02;16.97;;;4.85;;
20861;SDS011;10591;52.532;13.348;2024-03-23T02:18:34;13.80;;;4.95;;
20861;SDS011;10591;52.532;13.348;2024-03-23T02:21:05;16.40;;;5.12;;
20861;SDS011;10591;52.532;13.348;2024-03-23T02:23:35;15.43;;;4.53;;
20861;SDS011;10591;52.532;13.348;2024-03-23T02:26:09;15.70;;;4.67;;
20861;SDS011;10591;52.532;13.348;2024-03-23T02:28:39;15.38;;;4.62;;
20861;SDS011;10591;52.532;13.348;2024-03-23T02:31:11;11.28;;;4.95;;
20861;SDS011;10591;52.532;13.348;2024-03-23T02:33:44;14.83;;;5.03;;
20861;SDS011;10591;52.532;13.348;2024-03-23T02:36:16;13.68;;;4.80;;
20861;SDS011;10591;52.532;13.348;2024-03-23T02:38:47;13.05;;;4.05;;
20861;SDS011;10591;52.532;13.348;2024-03-23T02:41:18;12.00;;;4.97;;
20861;SDS011;10591;52.532;13.348;2024-03-23T02:43:50;13.30;;;4.40;;
20861;SDS011;10591;52.532;13.348;2024-03-23T02:46:21;16.00;;;4.78;;
20861;SDS011;10591;52.532;13.348;2024-03-23T02:48:55;18.30;;;4.50;;
20861;SDS011;10591;52.532;13.348;2024-03-23T02:51:25;16.93;;;4.47;;
20861;SDS011;10591;52.532;13.348;2024-03-23T02:53:56;20.23;;;5.37;;
20861;SDS011;10591;52.532;13.348;2024-03-23T02:56:27;16.10;;;6.42;;
20861;SDS011;10591;52.532;13.348;2024-03-23T02:58:57;16.57;;;5.75;;
20861;SDS011;10591;52.532;13.348;2024-03-23T03:01:28;14.47;;;4.92;;
20861;SDS011;10591;52.532;13.348;2024-03-23T03:04:00;18.30;;;5.50;;
20861;SDS011;10591;52.532;13.348;2024-03-23T03:06:31;13.98;;;4.72;;
20861;SDS011;10591;52.532;13.348;2024-03-23T03:09:03;18.80;;;5.08;;
20861;SDS011;10591;52.532;13.348;2024-03-23T03:11:35;14.00;;;5.28;;
20861;SDS011;10591;52.532;13.348;2024-03-23T03:14:06;14.18;;;4.87;;
20861;SDS011;10591;52.532;13.348;2024-03-23T03:16:36;14.35;;;4.67;;
20861;SDS011;10591;52.532;13.348;2024-03-23T03:19:07;19.60;;;5.05;;
20861;SDS011;10591;52.532;13.348;2024-03-23T03:21:39;14.83;;;5.10;;
20861;SDS011;10591;52.532;13.348;2024-03-23T03:24:09;13.45;;;4.78;;
20861;SDS011;10591;52.532;13.348;2024-03-23T03:26:40;12.82;;;4.40;;
20861;SDS011;10591;52.532;13.348;2024-03-23T03:29:11;17.00;;;5.10;;
20861;SDS011;10591;52.532;13.348;2024-03-23T03:31:42;16.07;;;5.05;;
20861;SDS011;10591;52.532;13.348;2024-03-23T03:34:13;15.45;;;4.87;;
20861;SDS011;10591;52.532;13.348;2024-03-23T03:36:44;10.75;;;4.35;;
20861;SDS011;10591;52.532;13.348;2024-03-23T03:39:15;14.30;;;5.20;;
20861;SDS011;10591;52.532;13.348;2024-03-23T03:41:45;17.70;;;5.17;;
20861;SDS011;10591;52.532;13.348;2024-03-23T03:44:16;9.88;;;4.78;;
20861;SDS011;10591;52.532;13.348;2024-03-23T03:46:47;15.90;;;5.40;;
20861;SDS011;10591;52.532;13.348;2024-03-23T03:49:18;13.80;;;4.45;;
20861;SDS011;10591;52.532;13.348;2024-03-23T03:51:50;15.45;;;5.33;;
20861;SDS011;10591;52.532;13.348;2024-03-23T03:54:20;13.05;;;4.40;;
20861;SDS011;10591;52.532;13.348;2024-03-23T03:56:51;14.20;;;4.72;;
20861;SDS011;10591;52.532;13.348;2024-03-23T03:59:22;10.75;;;3.98;;
20861;SDS011;10591;52.532;13.348;2024-03-23T04:01:52;9.78;;;4.20;;
20861;SDS011;10591;52.532;13.348;2024-03-23T04:04:23;8.25;;;3.77;;
20861;SDS011;10591;52.532;13.348;2024-03-23T04:07:00;10.93;;;3.52;;
20861;SDS011;10591;52.532;13.348;2024-03-23T04:09:31;10.93;;;2.80;;
20861;SDS011;10591;52.532;13.348;2024-03-23T04:12:02;8.70;;;3.40;;
20861;SDS011;10591;52.532;13.348;2024-03-23T04:14:33;6.40;;;2.60;;
20861;SDS011;10591;52.532;13.348;2024-03-23T04:17:03;5.37;;;2.60;;
20861;SDS011;10591;52.532;13.348;2024-03-23T04:19:34;6.58;;;2.60;;
20861;SDS011;10591;52.532;13.348;2024-03-23T04:22:05;4.55;;;2.12;;
20861;SDS011;10591;52.532;13.348;2024-03-23T04:24:35;7.40;;;2.50;;
20861;SDS011;10591;52.532;13.348;2024-03-23T04:27:06;5.05;;;2.20;;
20861;SDS011;10591;52.532;13.348;2024-03-23T04:29:36;6.40;;;2.25;;
20861;SDS011;10591;52.532;13.348;2024-03-23T04:32:07;5.25;;;2.40;;
20861;SDS011;10591;52.532;13.348;2024-03-23T04:34:38;4.97;;;2.58;;
20861;SDS011;10591;52.532;13.348;2024-03-23T04:37:09;6.12;;;2.37;;
20861;SDS011;10591;52.532;13.348;2024-03-23T04:39:39;4.87;;;2.50;;
20861;SDS011;10591;52.532;13.348;2024-03-23T04:42:10;7.83;;;2.70;;
20861;SDS011;10591;52.532;13.348;2024-03-23T04:44:41;6.37;;;2.30;;
20861;SDS011;10591;52.532;13.348;2024-03-23T04:47:12;5.20;;;2.58;;
20861;SDS011;10591;52.532;13.348;2024-03-23T04:49:42;6.95;;;2.58;;
20861;SDS011;10591;52.532;13.348;2024-03-23T04:52:13;5.03;;;2.37;;
20861;SDS011;10591;52.532;13.348;2024-03-23T04:54:45;6.53;;;2.35;;
20861;SDS011;10591;52.532;13.348;2024-03-23T04:57:16;8.27;;;2.60;;
20861;SDS011;10591;52.532;13.348;2024-03-23T04:59:47;4.83;;;2.20;;
20861;SDS011;10591;52.532;13.348;2024-03-23T05:02:18;4.30;;;2.35;;
20861;SDS011;10591;52.532;13.348;2024-03-23T05:04:48;8.28;;;2.70;;
20861;SDS011;10591;52.532;13.348;2024-03-23T05:07:19;5.40;;;2.52;;
20861;SDS011;10591;52.532;13.348;2024-03-23T05:09:50;7.40;;;2.80;;
20861;SDS011;10591;52.532;13.348;2024-03-23T05:12:21;6.42;;;3.22;;
20861;SDS011;10591;52.532;13.348;2024-03-23T05:14:51;6.90;;;3.10;;
20861;SDS011;10591;52.532;13.348;2024-03-23T05:17:22;7.33;;;3.20;;
20861;SDS011;10591;52.532;13.348;2024-03-23T05:19:53;10.70;;;3.50;;
20861;SDS011;10591;52.532;13.348;2024-03-23T05:22:25;7.92;;;3.37;;
20861;SDS011;10591;52.532;13.348;2024-03-23T05:24:57;8.08;;;3.45;;
20861;SDS011;10591;52.532;13.348;2024-03-23T05:27:27;13.50;;;3.70;;
20861;SDS011;10591;52.532;13.348;2024-03-23T05:29:58;9.28;;;3.98;;
20861;SDS011;10591;52.532;13.348;2024-03-23T05:32:29;7.83;;;3.72;;
20861;SDS011;10591;52.532;13.348;2024-03-23T05:35:00;8.98;;;3.50;;
20861;SDS011;10591;52.532;13.348;2024-03-23T05:37:30;7.60;;;3.60;;
20861;SDS011;10591;52.532;13.348;2024-03-23T05:40:02;8.87;;;3.60;;
20861;SDS011;10591;52.532;13.348;2024-03-23T05:42:34;10.72;;;3.80;;
20861;SDS011;10591;52.532;13.348;2024-03-23T05:45:05;9.63;;;3.25;;
20861;SDS011;10591;52.532;13.348;2024-03-23T05:47:36;9.18;;;3.58;;
20861;SDS011;10591;52.532;13.348;2024-03-23T05:50:09;8.83;;;3.33;;
20861;SDS011;10591;52.532;13.348;2024-03-23T05:52:41;8.43;;;4.08;;
20861;SDS011;10591;52.532;13.348;2024-03-23T05:55:12;8.63;;;3.30;;
20861;SDS011;10591;52.532;13.348;2024-03-23T05:57:43;8.18;;;3.90;;
20861;SDS011;10591;52.532;13.348;2024-03-23T06:00:14;7.80;;;3.92;;
20861;SDS011;10591;52.532;13.348;2024-03-23T06:02:45;6.70;;;3.70;;
20861;SDS011;10591;52.532;13.348;2024-03-23T06:05:15;7.90;;;3.50;;
20861;SDS011;10591;52.532;13.348;2024-03-23T06:07:46;7.15;;;3.52;;
20861;SDS011;10591;52.532;13.348;2024-03-23T06:10:18;6.95;;;3.40;;
20861;SDS011;10591;52.532;13.348;2024-03-23T06:12:50;7.97;;;3.47;;
20861;SDS011;10591;52.532;13.348;2024-03-23T06:15:23;8.13;;;3.00;;
20861;SDS011;10591;52.532;13.348;2024-03-23T06:17:55;6.95;;;3.20;;
20861;SDS011;10591;52.532;13.348;2024-03-23T06:20:27;10.85;;;3.37;;
20861;SDS011;10591;52.532;13.348;2024-03-23T06:22:57;8.20;;;3.10;;
20861;SDS011;10591;52.532;13.348;2024-03-23T06:25:28;6.53;;;3.00;;
20861;SDS011;10591;52.532;13.348;2024-03-23T06:27:59;7.00;;;3.02;;
20861;SDS011;10591;52.532;13.348;2024-03-23T06:30:31;5.92;;;3.50;;
20861;SDS011;10591;52.532;13.348;2024-03-23T06:33:02;7.90;;;3.47;;
20861;SDS011;10591;52.532;13.348;2024-03-23T06:35:37;4.92;;;3.33;;
20861;SDS011;10591;52.532;13.348;2024-03-23T06:38:10;7.37;;;3.10;;
20861;SDS011;10591;52.532;13.348;2024-03-23T06:40:41;6.67;;;3.47;;
20861;SDS011;10591;52.532;13.348;2024-03-23T06:43:11;5.08;;;2.83;;
20861;SDS011;10591;52.532;13.348;2024-03-23T06:45:45;7.37;;;2.98;;
20861;SDS011;10591;52.532;13.348;2024-03-23T06:48:18;9.15;;;3.20;;
20861;SDS011;10591;52.532;13.348;2024-03-23T06:50:49;4.90;;;2.47;;
20861;SDS011;10591;52.532;13.348;2024-03-23T06:53:21;7.67;;;3.30;;
20861;SDS011;10591;52.532;13.348;2024-03-23T06:55:52;8.33;;;3.35;;
20861;SDS011;10591;52.532;13.348;2024-03-23T06:58:24;7.60;;;3.00;;
20861;SDS011;10591;52.532;13.348;2024-03-23T07:00:57;5.57;;;2.80;;
20861;SDS011;10591;52.532;13.348;2024-03-23T07:03:27;8.35;;;3.10;;
20861;SDS011;10591;52.532;13.348;2024-03-23T07:05:58;5.70;;;2.83;;
20861;SDS011;10591;52.532;13.348;2024-03-23T07:08:29;7.37;;;3.00;;
20861;SDS011;10591;52.532;13.348;2024-03-23T07:11:00;7.47;;;2.80;;
20861;SDS011;10591;52.532;13.348;2024-03-23T07:13:31;8.50;;;3.30;;
20861;SDS011;10591;52.532;13.348;2024-03-23T07:16:02;7.90;;;2.92;;
20861;SDS011;10591;52.532;13.348;2024-03-23T07:18:35;7.40;;;3.40;;
20861;SDS011;10591;52.532;13.348;2024-03-23T07:21:05;6.42;;;3.10;;
20861;SDS011;10591;52.532;13.348;2024-03-23T07:23:36;6.70;;;2.87;;
20861;SDS011;10591;52.532;13.348;2024-03-23T07:26:07;6.95;;;3.15;;
20861;SDS011;10591;52.532;13.348;2024-03-23T07:28:38;8.73;;;2.90;;
20861;SDS011;10591;52.532;13.348;2024-03-23T07:31:15;7.27;;;2.80;;
20861;SDS011;10591;52.532;13.348;2024-03-23T07:33:48;9.70;;;3.00;;
20861;SDS011;10591;52.532;13.348;2024-03-23T07:36:18;10.05;;;2.83;;
20861;SDS011;10591;52.532;13.348;2024-03-23T07:38:49;5.62;;;3.10;;
20861;SDS011;10591;52.532;13.348;2024-03-23T07:41:23;6.87;;;3.02;;
20861;SDS011;10591;52.532;13.348;2024-03-23T07:43:53;6.92;;;3.20;;
20861;SDS011;10591;52.532;13.348;2024-03-23T07:46:24;7.45;;;3.47;;
20861;SDS011;10591;52.532;13.348;2024-03-23T07:48:56;8.15;;;3.50;;
20861;SDS011;10591;52.532;13.348;2024-03-23T07:51:31;8.88;;;4.00;;
20861;SDS011;10591;52.532;13.348;2024-03-23T07:54:05;7.70;;;3.47;;
20861;SDS011;10591;52.532;13.348;2024-03-23T07:56:35;9.23;;;3.20;;
20861;SDS011;10591;52.532;13.348;2024-03-23T07:59:07;29.77;;;27.30;;
20861;SDS011;10591;52.532;13.348;2024-03-23T08:01:37;7.75;;;4.25;;
20861;SDS011;10591;52.532;13.348;2024-03-23T08:04:08;6.65;;;3.45;;
20861;SDS011;10591;52.532;13.348;2024-03-23T08:06:39;7.72;;;3.20;;
20861;SDS011;10591;52.532;13.348;2024-03-23T08:09:12;8.53;;;3.60;;
20861;SDS011;10591;52.532;13.348;2024-03-23T08:11:45;7.33;;;3.10;;
20861;SDS011;10591;52.532;13.348;2024-03-23T08:14:16;4.80;;;2.98;;
20861;SDS011;10591;52.532;13.348;2024-03-23T08:16:47;6.67;;;3.62;;
20861;SDS011;10591;52.532;13.348;2024-03-23T08:19:21;9.10;;;5.50;;
20861;SDS011;10591;52.532;13.348;2024-03-23T08:21:55;6.40;;;3.52;;
20861;SDS011;10591;52.532;13.348;2024-03-23T08:24:25;8.53;;;5.40;;
20861;SDS011;10591;52.532;13.348;2024-03-23T08:26:55;17.77;;;16.03;;
20861;SDS011;10591;52.532;13.348;2024-03-23T08:29:26;8.67;;;4.10;;
20861;SDS011;10591;52.532;13.348;2024-03-23T08:31:58;9.80;;;4.40;;
20861;SDS011;10591;52.532;13.348;2024-03-23T08:34:29;9.75;;;3.80;;
20861;SDS011;10591;52.532;13.348;2024-03-23T08:37:00;11.60;;;3.90;;
20861;SDS011;10591;52.532;13.348;2024-03-23T08:39:31;11.75;;;3.95;;
20861;SDS011;10591;52.532;13.348;2024-03-23T08:42:01;10.95;;;4.08;;
20861;SDS011;10591;52.532;13.348;2024-03-23T08:44:32;10.80;;;4.47;;
20861;SDS011;10591;52.532;13.348;2024-03-23T08:47:03;9.67;;;3.67;;
20861;SDS011;10591;52.532;13.348;2024-03-23T08:49:33;8.13;;;4.27;;
20861;SDS011;10591;52.532;13.348;2024-03-23T08:52:05;11.10;;;3.97;;
20861;SDS011;10591;52.532;13.348;2024-03-23T08:54:36;10.97;;;3.63;;
20861;SDS011;10591;52.532;13.348;2024-03-23T08:57:07;8.73;;;4.20;;
20861;SDS011;10591;52.532;13.348;2024-03-23T08:59:38;10.83;;;3.77;;
20861;SDS011;10591;52.532;13.348;2024-03-23T09:02:09;9.50;;;3.40;;
20861;SDS011;10591;52.532;13.348;2024-03-23T09:04:39;11.53;;;3.87;;
20861;SDS011;10591;52.532;13.348;2024-03-23T09:07:10;8.50;;;2.83;;
20861;SDS011;10591;52.532;13.348;2024-03-23T09:09:40;8.20;;;3.40;;
20861;SDS011;10591;52.532;13.348;2024-03-23T09:12:11;8.63;;;3.17;;
20861;SDS011;10591;52.532;13.348;2024-03-23T09:14:42;7.50;;;2.40;;
20861;SDS011;10591;52.532;13.348;2024-03-23T09:17:14;5.60;;;2.60;;
20861;SDS011;10591;52.532;13.348;2024-03-23T09:19:46;4.57;;;2.27;;
20861;SDS011;10591;52.532;13.348;2024-03-23T09:22:17;4.60;;;3.07;;
20861;SDS011;10591;52.532;13.348;2024-03-23T09:24:49;6.67;;;2.80;;
20861;SDS011;10591;52.532;13.348;2024-03-23T09:27:19;10.57;;;2.70;;
20861;SDS011;10591;52.532;13.348;2024-03-23T09:29:50;8.30;;;2.73;;
20861;SDS011;10591;52.532;13.348;2024-03-23T09:32:22;6.97;;;3.10;;
20861;SDS011;10591;52.532;13.348;2024-03-23T09:34:53;8.03;;;2.83;;
20861;SDS011;10591;52.532;13.348;2024-03-23T09:37:23;8.07;;;2.83;;
20861;SDS011;10591;52.532;13.348;2024-03-23T09:39:56;8.83;;;3.07;;
20861;SDS011;10591;52.532;13.348;2024-03-23T09:42:26;9.37;;;2.83;;
20861;SDS011;10591;52.532;13.348;2024-03-23T09:44:57;7.65;;;3.35;;
20861;SDS011;10591;52.532;13.348;2024-03-23T09:47:30;10.70;;;3.37;;
20861;SDS011;10591;52.532;13.348;2024-03-23T09:50:02;12.13;;;3.70;;
20861;SDS011;10591;52.532;13.348;2024-03-23T09:52:35;8.03;;;3.37;;
20861;SDS011;10591;52.532;13.348;2024-03-23T09:55:05;8.83;;;3.20;;
20861;SDS011;10591;52.532;13.348;2024-03-23T09:57:38;11.97;;;3.55;;
20861;SDS011;10591;52.532;13.348;2024-03-23T10:00:11;10.53;;;3.27;;
20861;SDS011;10591;52.532;13.348;2024-03-23T10:02:42;7.83;;;3.37;;
20861;SDS011;10591;52.532;13.348;2024-03-23T10:05:19;8.40;;;2.80;;
20861;SDS011;10591;52.532;13.348;2024-03-23T10:07:54;6.23;;;2.97;;
20861;SDS011;10591;52.532;13.348;2024-03-23T10:10:25;7.45;;;3.00;;
20861;SDS011;10591;52.532;13.348;2024-03-23T10:12:56;8.15;;;3.40;;
20861;SDS011;10591;52.532;13.348;2024-03-23T10:15:26;11.57;;;3.33;;
20861;SDS011;10591;52.532;13.348;2024-03-23T10:17:57;7.80;;;3.47;;
20861;SDS011;10591;52.532;13.348;2024-03-23T10:20:30;6.77;;;2.90;;
20861;SDS011;10591;52.532;13.348;2024-03-23T10:23:02;7.00;;;3.22;;
20861;SDS011;10591;52.532;13.348;2024-03-23T10:25:33;10.70;;;3.40;;
20861;SDS011;10591;52.532;13.348;2024-03-23T10:28:03;8.23;;;3.70;;
20861;SDS011;10591;52.532;13.348;2024-03-23T10:30:35;6.93;;;3.10;;
20861;SDS011;10591;52.532;13.348;2024-03-23T10:33:13;10.17;;;3.20;;
20861;SDS011;10591;52.532;13.348;2024-03-23T10:35:44;8.08;;;3.27;;
20861;SDS011;10591;52.532;13.348;2024-03-23T10:38:16;11.43;;;3.53;;
20861;SDS011;10591;52.532;13.348;2024-03-23T10:40:49;9.67;;;3.00;;
20861;SDS011;10591;52.532;13.348;2024-03-23T10:43:20;10.20;;;2.97;;
20861;SDS011;10591;52.532;13.348;2024-03-23T10:45:52;9.17;;;2.97;;
20861;SDS011;10591;52.532;13.348;2024-03-23T10:48:22;8.60;;;3.03;;
20861;SDS011;10591;52.532;13.348;2024-03-23T10:50:54;10.38;;;3.20;;
20861;SDS011;10591;52.532;13.348;2024-03-23T10:53:26;9.13;;;3.50;;
20861;SDS011;10591;52.532;13.348;2024-03-23T10:55:59;9.48;;;3.83;;
20861;SDS011;10591;52.532;13.348;2024-03-23T10:58:33;6.58;;;3.02;;
20861;SDS011;10591;52.532;13.348;2024-03-23T11:01:12;8.50;;;3.30;;
20861;SDS011;10591;52.532;13.348;2024-03-23T11:03:45;11.90;;;4.05;;
20861;SDS011;10591;52.532;13.348;2024-03-23T11:06:39;10.27;;;3.63;;
20861;SDS011;10591;52.532;13.348;2024-03-23T11:09:37;10.50;;;3.42;;
20861;SDS011;10591;52.532;13.348;2024-03-23T11:11:53;7.90;;;4.33;;
20861;SDS011;10591;52.532;13.348;2024-03-23T11:14:24;9.23;;;4.83;;
20861;SDS011;10591;52.532;13.348;2024-03-23T11:17:10;6.60;;;3.35;;
20861;SDS011;10591;52.532;13.348;2024-03-23T11:19:41;9.05;;;3.80;;
20861;SDS011;10591;52.532;13.348;2024-03-23T11:22:13;9.57;;;3.40;;
20861;SDS011;10591;52.532;13.348;2024-03-23T11:24:49;7.40;;;3.25;;
20861;SDS011;10591;52.532;13.348;2024-03-23T11:27:21;11.12;;;3.72;;
20861;SDS011;10591;52.532;13.348;2024-03-23T11:29:52;6.75;;;3.58;;
20861;SDS011;10591;52.532;13.348;2024-03-23T11:32:23;4.33;;;2.95;;
20861;SDS011;10591;52.532;13.348;2024-03-23T11:34:55;9.43;;;3.05;;
20861;SDS011;10591;52.532;13.348;2024-03-23T11:37:26;10.45;;;4.90;;
20861;SDS011;10591;52.532;13.348;2024-03-23T11:39:58;8.48;;;3.75;;
20861;SDS011;10591;52.532;13.348;2024-03-23T11:42:30;7.75;;;3.60;;
20861;SDS011;10591;52.532;13.348;2024-03-23T11:45:07;6.75;;;2.58;;
20861;SDS011;10591;52.532;13.348;2024-03-23T11:47:37;7.55;;;3.08;;
20861;SDS011;10591;52.532;13.348;2024-03-23T11:50:08;7.95;;;2.90;;
20861;SDS011;10591;52.532;13.348;2024-03-23T11:52:39;7.17;;;2.75;;
20861;SDS011;10591;52.532;13.348;2024-03-23T11:55:10;7.03;;;3.25;;
20861;SDS011;10591;52.532;13.348;2024-03-23T11:57:41;8.80;;;3.07;;
20861;SDS011;10591;52.532;13.348;2024-03-23T12:00:23;6.43;;;2.90;;
20861;SDS011;10591;52.532;13.348;2024-03-23T12:02:53;6.85;;;3.10;;
20861;SDS011;10591;52.532;13.348;2024-03-23T12:05:26;8.65;;;2.92;;
20861;SDS011;10591;52.532;13.348;2024-03-23T12:08:17;5.95;;;2.50;;
20861;SDS011;10591;52.532;13.348;2024-03-23T12:13:44;6.53;;;2.77;;
20861;SDS011;10591;52.532;13.348;2024-03-23T12:16:17;4.95;;;2.67;;
20861;SDS011;10591;52.532;13.348;2024-03-23T12:18:49;5.92;;;2.83;;
20861;SDS011;10591;52.532;13.348;2024-03-23T12:21:21;9.25;;;3.58;;
20861;SDS011;10591;52.532;13.348;2024-03-23T12:23:53;9.05;;;2.90;;
20861;SDS011;10591;52.532;13.348;2024-03-23T12:26:23;9.78;;;3.42;;
20861;SDS011;10591;52.532;13.348;2024-03-23T12:28:54;7.10;;;2.70;;
20861;SDS011;10591;52.532;13.348;2024-03-23T12:31:25;8.40;;;3.15;;
20861;SDS011;10591;52.532;13.348;2024-03-23T12:33:56;5.35;;;2.87;;
20861;SDS011;10591;52.532;13.348;2024-03-23T12:36:26;7.90;;;3.42;;
20861;SDS011;10591;52.532;13.348;2024-03-23T12:38:57;9.43;;;3.10;;
20861;SDS011;10591;52.532;13.348;2024-03-23T12:41:28;4.22;;;2.60;;
20861;SDS011;10591;52.532;13.348;2024-03-23T12:43:59;6.30;;;2.40;;
20861;SDS011;10591;52.532;13.348;2024-03-23T12:46:30;7.80;;;3.05;;
20861;SDS011;10591;52.532;13.348;2024-03-23T12:49:01;4.67;;;2.17;;
20861;SDS011;10591;52.532;13.348;2024-03-23T12:51:31;4.55;;;2.37;;
20861;SDS011;10591;52.532;13.348;2024-03-23T12:54:03;7.00;;;2.20;;
20861;SDS011;10591;52.532;13.348;2024-03-23T12:56:34;4.67;;;2.20;;
20861;SDS011;10591;52.532;13.348;2024-03-23T12:59:05;5.40;;;2.30;;
20861;SDS011;10591;52.532;13.348;2024-03-23T13:01:36;4.78;;;2.05;;
20861;SDS011;10591;52.532;13.348;2024-03-23T13:04:06;4.05;;;2.40;;
20861;SDS011;10591;52.532;13.348;2024-03-23T13:06:38;5.25;;;2.50;;
20861;SDS011;10591;52.532;13.348;2024-03-23T13:09:08;3.90;;;2.40;;
20861;SDS011;10591;52.532;13.348;2024-03-23T13:11:41;7.05;;;2.65;;
20861;SDS011;10591;52.532;13.348;2024-03-23T13:14:12;8.30;;;2.80;;
20861;SDS011;10591;52.532;13.348;2024-03-23T13:16:46;6.25;;;3.60;;
20861;SDS011;10591;52.532;13.348;2024-03-23T13:19:17;7.08;;;2.60;;
20861;SDS011;10591;52.532;13.348;2024-03-23T13:21:49;4.80;;;2.87;;
20861;SDS011;10591;52.532;13.348;2024-03-23T13:24:21;6.55;;;2.40;;
20861;SDS011;10591;52.532;13.348;2024-03-23T13:26:53;5.45;;;2.37;;
20861;SDS011;10591;52.532;13.348;2024-03-23T13:29:25;5.22;;;2.70;;
20861;SDS011;10591;52.532;13.348;2024-03-23T13:31:55;5.37;;;3.00;;
20861;SDS011;10591;52.532;13.348;2024-03-23T13:34:26;6.42;;;3.10;;
20861;SDS011;10591;52.532;13.348;2024-03-23T13:36:58;8.93;;;2.70;;
20861;SDS011;10591;52.532;13.348;2024-03-23T13:39:30;5.40;;;2.80;;
20861;SDS011;10591;52.532;13.348;2024-03-23T13:42:00;7.58;;;3.10;;
20861;SDS011;10591;52.532;13.348;2024-03-23T13:44:32;5.70;;;2.90;;
20861;SDS011;10591;52.532;13.348;2024-03-23T13:47:03;6.80;;;3.20;;
20861;SDS011;10591;52.532;13.348;2024-03-23T13:49:36;7.20;;;3.55;;
20861;SDS011;10591;52.532;13.348;2024-03-23T13:52:09;7.85;;;3.95;;
20861;SDS011;10591;52.532;13.348;2024-03-23T13:54:40;7.12;;;3.77;;
20861;SDS011;10591;52.532;13.348;2024-03-23T13:57:15;7.55;;;3.55;;
20861;SDS011;10591;52.532;13.348;2024-03-23T13:59:46;7.92;;;3.70;;
20861;SDS011;10591;52.532;13.348;2024-03-23T14:02:19;7.92;;;4.17;;
20861;SDS011;10591;52.532;13.348;2024-03-23T14:04:50;8.03;;;4.00;;
20861;SDS011;10591;52.532;13.348;2024-03-23T14:07:21;6.03;;;3.90;;
20861;SDS011;10591;52.532;13.348;2024-03-23T14:09:52;7.10;;;3.60;;
20861;SDS011;10591;52.532;13.348;2024-03-23T14:12:24;5.30;;;3.47;;
20861;SDS011;10591;52.532;13.348;2024-03-23T14:14:56;11.97;;;3.80;;
20861;SDS011;10591;52.532;13.348;2024-03-23T14:17:27;11.08;;;4.45;;
20861;SDS011;10591;52.532;13.348;2024-03-23T14:19:57;6.25;;;3.50;;
20861;SDS011;10591;52.532;13.348;2024-03-23T14:22:31;5.85;;;3.67;;
20861;SDS011;10591;52.532;13.348;2024-03-23T14:25:03;6.62;;;3.30;;
20861;SDS011;10591;52.532;13.348;2024-03-23T14:27:34;6.00;;;3.22;;
20861;SDS011;10591;52.532;13.348;2024-03-23T14:30:08;7.62;;;3.72;;
20861;SDS011;10591;52.532;13.348;2024-03-23T14:32:39;9.45;;;3.75;;
20861;SDS011;10591;52.532;13.348;2024-03-23T14:35:10;7.30;;;3.42;;
20861;SDS011;10591;52.532;13.348;2024-03-23T14:37:40;7.05;;;3.30;;
20861;SDS011;10591;52.532;13.348;2024-03-23T14:40:11;6.12;;;3.55;;
20861;SDS011;10591;52.532;13.348;2024-03-23T14:42:42;6.72;;;3.65;;
20861;SDS011;10591;52.532;13.348;2024-03-23T14:45:13;9.45;;;3.22;;
20861;SDS011;10591;52.532;13.348;2024-03-23T14:47:44;5.60;;;3.17;;
20861;SDS011;10591;52.532;13.348;2024-03-23T14:50:15;6.62;;;3.30;;
20861;SDS011;10591;52.532;13.348;2024-03-23T14:52:46;8.08;;;3.98;;
20861;SDS011;10591;52.532;13.348;2024-03-23T14:55:17;8.60;;;4.03;;
20861;SDS011;10591;52.532;13.348;2024-03-23T14:57:48;9.58;;;3.80;;
20861;SDS011;10591;52.532;13.348;2024-03-23T15:00:20;7.65;;;4.05;;
20861;SDS011;10591;52.532;13.348;2024-03-23T15:02:51;6.35;;;3.77;;
20861;SDS011;10591;52.532;13.348;2024-03-23T15:05:22;8.40;;;3.92;;
20861;SDS011;10591;52.532;13.348;2024-03-23T15:07:54;6.80;;;4.00;;
20861;SDS011;10591;52.532;13.348;2024-03-23T15:10:24;8.17;;;3.73;;
20861;SDS011;10591;52.532;13.348;2024-03-23T15:12:55;12.78;;;6.60;;
20861;SDS011;10591;52.532;13.348;2024-03-23T15:15:25;6.35;;;4.15;;
20861;SDS011;10591;52.532;13.348;2024-03-23T15:17:57;5.37;;;3.90;;
20861;SDS011;10591;52.532;13.348;2024-03-23T15:20:29;5.47;;;4.20;;
20861;SDS011;10591;52.532;13.348;2024-03-23T15:23:00;5.37;;;3.50;;
20861;SDS011;10591;52.532;13.348;2024-03-23T15:25:32;4.87;;;3.20;;
20861;SDS011;10591;52.532;13.348;2024-03-23T15:28:03;5.15;;;3.58;;
20861;SDS011;10591;52.532;13.348;2024-03-23T15:30:35;6.05;;;3.12;;
20861;SDS011;10591;52.532;13.348;2024-03-23T15:33:06;3.50;;;2.83;;
20861;SDS011;10591;52.532;13.348;2024-03-23T15:35:36;4.53;;;2.75;;
20861;SDS011;10591;52.532;13.348;2024-03-23T15:38:07;6.42;;;2.80;;
20861;SDS011;10591;52.532;13.348;2024-03-23T15:40:38;3.58;;;2.77;;
20861;SDS011;10591;52.532;13.348;2024-03-23T15:43:09;3.87;;;2.60;;
20861;SDS011;10591;52.532;13.348;2024-03-23T15:45:39;3.20;;;2.55;;
20861;SDS011;10591;52.532;13.348;2024-03-23T15:48:12;5.90;;;3.12;;
20861;SDS011;10591;52.532;13.348;2024-03-23T15:50:49;4.17;;;3.22;;